Time;durP1;ratioP1;P1;durP2;ratioP2;P2;SDS_P1;SDS_P2;PMS_P1;PMS_P2;Temp;Humidity;BMP_temperature;BMP_pressure;BME280_temperature;BME280_humidity;BME280_pressure;Samples;Min_cycle;Max_cycle;Signal;HPM_P1;HPM_P2
2022/04/11 00:01:48;;;;;;;9.10;6.47;;;;;;;3.00;95.85;98515.66;4993640;28;20211;-69
2022/04/11 00:04:14;;;;;;;8.33;6.03;;;;;;;2.90;96.06;98510.56;4993939;28;20211;-70
2022/04/11 00:06:40;;;;;;;7.97;5.63;;;;;;;2.95;95.10;98517.94;4994458;28;20231;-69
2022/04/11 00:09:07;;;;;;;7.43;5.37;;;;;;;2.89;94.73;98502.84;4993532;28;20217;-69
2022/04/11 00:11:33;;;;;;;7.13;5.77;;;;;;;2.96;94.83;98507.28;4994352;28;20563;-69
2022/04/11 00:14:01;;;;;;;7.77;5.90;;;;;;;2.87;95.70;98503.00;4993872;28;20207;-69
2022/04/11 00:16:28;;;;;;;6.90;5.80;;;;;;;2.85;94.77;98504.13;4994704;28;20209;-69
2022/04/11 00:18:54;;;;;;;8.13;6.07;;;;;;;2.85;94.44;98493.63;4997295;28;20716;-69
2022/04/11 00:21:21;;;;;;;6.43;5.77;;;;;;;2.81;95.07;98497.56;4998127;28;20234;-69
2022/04/11 00:23:47;;;;;;;9.57;6.20;;;;;;;2.81;94.95;98495.75;4997515;28;20570;-69
2022/04/11 00:26:13;;;;;;;7.57;5.97;;;;;;;2.79;95.27;98499.50;4997457;28;20214;-69
2022/04/11 00:28:40;;;;;;;7.93;5.57;;;;;;;2.73;94.51;98498.34;4997267;28;20223;-69
2022/04/11 00:31:06;;;;;;;7.27;5.90;;;;;;;2.70;95.23;98493.41;4997324;28;20211;-69
2022/04/11 00:33:32;;;;;;;7.50;5.70;;;;;;;2.66;94.98;98497.31;4997327;28;20208;-71
2022/04/11 00:35:59;;;;;;;8.50;5.40;;;;;;;2.64;94.95;98491.44;4997031;28;20211;-69
2022/04/11 00:38:25;;;;;;;8.73;6.10;;;;;;;2.66;96.07;98491.28;4997155;28;20587;-69
2022/04/11 00:40:51;;;;;;;9.03;6.33;;;;;;;2.57;95.32;98487.78;4997145;28;20222;-69
2022/04/11 00:43:37;;;;;;;9.30;6.43;;;;;;;2.58;95.84;98493.88;4997132;28;20214;-69
2022/04/11 00:46:06;;;;;;;6.17;5.57;;;;;;;2.60;96.84;98489.25;4997203;28;20192;-69
2022/04/11 00:48:32;;;;;;;8.03;5.80;;;;;;;2.59;96.30;98475.34;4997018;28;20242;-69
2022/04/11 00:51:12;;;;;;;6.63;6.00;;;;;;;2.60;96.10;98479.59;4997053;28;20218;-69
2022/04/11 00:53:42;;;;;;;7.90;6.40;;;;;;;2.55;96.12;98470.56;4996772;28;20192;-69
2022/04/11 00:56:11;;;;;;;7.83;5.83;;;;;;;2.61;96.03;98476.00;4996870;28;20218;-69
2022/04/11 00:58:39;;;;;;;7.10;6.30;;;;;;;2.57;96.28;98474.66;4996822;28;20231;-69
2022/04/11 01:01:06;;;;;;;6.93;5.67;;;;;;;2.61;95.92;98472.53;4996851;28;20696;-69
2022/04/11 01:03:33;;;;;;;8.00;6.60;;;;;;;2.59;95.85;98464.00;4996820;28;20211;-69
2022/04/11 01:06:01;;;;;;;7.47;6.00;;;;;;;2.54;96.18;98468.91;4996990;28;20203;-69
2022/04/11 01:08:28;;;;;;;6.27;5.30;;;;;;;2.52;95.81;98463.00;4996385;28;20235;-69
2022/04/11 01:10:55;;;;;;;7.60;5.60;;;;;;;2.50;97.18;98470.19;4996366;28;20218;-69
2022/04/11 01:13:21;;;;;;;7.00;5.80;;;;;;;2.50;97.05;98465.78;4996692;28;20569;-69
2022/04/11 01:16:06;;;;;;;6.13;5.53;;;;;;;2.41;96.26;98471.97;4996618;28;20203;-69
2022/04/11 01:18:37;;;;;;;8.07;6.07;;;;;;;2.37;96.32;98475.06;4996692;28;20231;-69
2022/04/11 01:21:06;;;;;;;8.53;5.90;;;;;;;2.39;96.61;98475.75;4996491;28;20214;-69
2022/04/11 01:23:32;;;;;;;7.47;5.50;;;;;;;2.33;96.51;98476.34;4996451;28;20203;-69
2022/04/11 01:25:58;;;;;;;5.57;5.03;;;;;;;2.36;96.04;98476.88;4996396;28;20214;-69
2022/04/11 01:28:25;;;;;;;8.47;5.20;;;;;;;2.36;96.88;98470.81;4995104;28;20223;-69
2022/04/11 01:30:54;;;;;;;7.73;5.40;;;;;;;2.39;97.14;98475.75;4996249;28;20541;-69
2022/04/11 01:33:29;;;;;;;6.97;5.77;;;;;;;2.38;96.75;98467.03;4996306;28;20203;-69
2022/04/11 01:35:56;;;;;;;8.10;5.40;;;;;;;2.38;97.00;98461.78;4995916;28;20207;-69
2022/04/11 01:38:22;;;;;;;7.13;5.30;;;;;;;2.39;96.98;98460.81;4996025;28;20262;-69
2022/04/11 01:40:58;;;;;;;7.80;5.27;;;;;;;2.41;97.53;98468.53;4995770;28;20219;-69
2022/04/11 01:43:25;;;;;;;9.73;5.80;;;;;;;2.50;97.20;98464.97;4995790;28;20191;-69
2022/04/11 01:45:52;;;;;;;9.50;5.77;;;;;;;2.46;96.87;98455.75;4996571;28;20203;-69
2022/04/11 01:48:19;;;;;;;6.20;5.60;;;;;;;2.48;97.16;98461.69;4995939;28;20234;-69
2022/04/11 01:50:45;;;;;;;8.23;5.50;;;;;;;2.44;96.76;98468.22;4995942;28;20207;-69
2022/04/11 01:53:14;;;;;;;10.00;6.53;;;;;;;2.49;96.74;98461.50;4995847;28;20203;-69
2022/04/11 01:55:41;;;;;;;8.13;5.83;;;;;;;2.44;97.38;98455.09;4995873;28;20230;-69
2022/04/11 01:58:09;;;;;;;9.73;6.27;;;;;;;2.51;97.20;98451.69;4995699;28;20231;-69
2022/04/11 02:00:38;;;;;;;8.77;6.03;;;;;;;2.55;97.88;98453.00;4995687;28;20226;-69
2022/04/11 02:03:06;;;;;;;8.73;6.10;;;;;;;2.58;97.88;98451.88;4995721;28;20203;-69
2022/04/11 02:05:33;;;;;;;6.60;5.53;;;;;;;2.55;97.06;98449.56;4995729;28;20211;-69
2022/04/11 02:08:00;;;;;;;7.73;6.03;;;;;;;2.54;97.33;98443.50;4995445;28;20235;-69
2022/04/11 02:10:28;;;;;;;7.30;6.07;;;;;;;2.51;98.08;98442.97;4995589;28;20258;-69
2022/04/11 02:12:56;;;;;;;6.90;5.90;;;;;;;2.61;97.78;98433.16;4995533;28;20211;-69
2022/04/11 02:15:22;;;;;;;6.50;5.57;;;;;;;2.51;97.73;98442.97;4995207;28;20579;-69
2022/04/11 02:17:50;;;;;;;8.37;5.63;;;;;;;2.47;98.29;98442.47;4995411;28;20290;-69
2022/04/11 02:20:17;;;;;;;8.47;6.37;;;;;;;2.53;97.46;98433.16;4995256;28;20227;-69
2022/04/11 02:22:47;;;;;;;8.33;6.03;;;;;;;2.51;98.24;98428.06;4995036;28;20215;-71
2022/04/11 02:25:14;;;;;;;12.03;6.40;;;;;;;2.56;97.50;98428.41;4995312;28;20207;-69
2022/04/11 02:27:41;;;;;;;11.03;6.07;;;;;;;2.58;98.16;98420.38;4995221;28;20311;-69
2022/04/11 02:30:08;;;;;;;8.13;6.07;;;;;;;2.58;97.30;98423.81;4995193;28;20210;-69
2022/04/11 02:32:35;;;;;;;9.73;5.90;;;;;;;2.58;96.36;98421.19;4995385;28;20590;-69
2022/04/11 02:35:01;;;;;;;8.63;5.80;;;;;;;2.65;95.79;98419.56;4995052;28;20207;-69
2022/04/11 02:37:28;;;;;;;6.43;5.83;;;;;;;2.56;95.51;98414.44;4994931;28;20227;-69
2022/04/11 02:39:54;;;;;;;10.63;5.93;;;;;;;2.58;95.42;98412.50;4994581;28;20572;-69
2022/04/11 02:42:22;;;;;;;10.83;5.83;;;;;;;2.59;95.00;98404.47;4994939;28;20214;-69
2022/04/11 02:44:50;;;;;;;7.00;5.77;;;;;;;2.61;93.51;98402.50;4994689;28;20211;-69
2022/04/11 02:47:16;;;;;;;9.03;6.03;;;;;;;2.62;94.96;98398.09;4994789;28;20259;-69
2022/04/11 02:49:43;;;;;;;6.53;5.90;;;;;;;2.65;95.02;98398.56;4994892;28;20203;-69
2022/04/11 02:52:10;;;;;;;10.80;6.37;;;;;;;2.69;94.84;98396.44;4995055;28;20203;-69
2022/04/11 02:54:40;;;;;;;7.43;5.97;;;;;;;2.62;94.51;98387.59;4994786;28;20211;-69
2022/04/11 02:57:07;;;;;;;6.70;5.33;;;;;;;2.71;94.95;98381.38;4994595;28;20240;-69
2022/04/11 02:59:35;;;;;;;8.47;6.50;;;;;;;2.65;94.99;98382.81;4994624;28;20562;-69
2022/04/11 03:02:02;;;;;;;7.43;6.30;;;;;;;2.69;94.45;98378.06;4994939;28;20257;-69
2022/04/11 03:04:29;;;;;;;8.33;5.73;;;;;;;2.64;94.86;98375.09;4994521;28;20211;-69
2022/04/11 03:06:56;;;;;;;9.33;6.03;;;;;;;2.67;94.61;98382.66;4994456;28;20575;-69
2022/04/11 03:09:23;;;;;;;7.70;5.60;;;;;;;2.57;94.97;98368.88;4994606;28;20187;-69
2022/04/11 03:11:49;;;;;;;7.17;6.13;;;;;;;2.51;95.99;98364.25;4994684;28;20211;-69
2022/04/11 03:14:16;;;;;;;8.90;5.83;;;;;;;2.52;96.29;98369.34;4994424;28;20234;-69
2022/04/11 03:16:42;;;;;;;9.20;6.00;;;;;;;2.55;96.67;98348.03;4994295;28;20314;-69
2022/04/11 03:19:09;;;;;;;8.53;6.00;;;;;;;2.49;96.85;98356.53;4994130;28;20227;-69
2022/04/11 03:21:36;;;;;;;7.27;5.57;;;;;;;2.46;96.61;98354.25;4994279;28;20266;-69
2022/04/11 03:24:03;;;;;;;7.03;5.20;;;;;;;2.55;96.84;98348.03;4993838;28;20207;-69
2022/04/11 03:26:29;;;;;;;7.37;5.97;;;;;;;2.56;96.23;98343.59;4993795;28;20203;-69
2022/04/11 03:28:55;;;;;;;8.93;5.97;;;;;;;2.41;96.75;98345.22;4993860;28;20222;-69
2022/04/11 03:31:22;;;;;;;7.40;6.00;;;;;;;2.35;96.59;98354.53;4993946;28;20211;-69
2022/04/11 03:33:48;;;;;;;8.63;5.50;;;;;;;2.30;96.83;98343.72;4993764;28;20667;-69
2022/04/11 03:36:14;;;;;;;10.97;5.87;;;;;;;2.33;96.91;98347.81;4993622;28;20215;-69
2022/04/11 03:38:41;;;;;;;7.67;5.77;;;;;;;2.31;97.47;98357.66;4993515;28;20687;-69
2022/04/11 03:41:07;;;;;;;7.17;5.90;;;;;;;2.32;96.91;98357.50;4993788;28;20230;-69
2022/04/11 03:43:34;;;;;;;9.50;5.67;;;;;;;2.39;97.40;98347.19;4993902;28;20233;-69
2022/04/11 03:46:00;;;;;;;7.30;6.07;;;;;;;2.38;97.72;98348.97;4993889;28;20298;-69
2022/04/11 03:48:27;;;;;;;9.23;6.10;;;;;;;2.40;97.49;98354.88;4993612;28;20224;-69
2022/04/11 03:50:53;;;;;;;9.83;6.00;;;;;;;2.37;96.82;98341.28;4993659;28;20214;-69
2022/04/11 03:53:20;;;;;;;6.33;5.73;;;;;;;2.23;97.43;98344.50;4998114;28;20222;-69
2022/04/11 03:55:46;;;;;;;7.90;6.27;;;;;;;2.25;98.80;98345.19;4997593;28;20746;-69
2022/04/11 03:58:13;;;;;;;8.93;6.73;;;;;;;2.28;97.99;98342.22;4997295;28;20594;-69
2022/04/11 04:00:39;;;;;;;7.33;6.27;;;;;;;2.17;97.71;98345.16;4997728;28;20227;-69
2022/04/11 04:03:07;;;;;;;10.03;6.27;;;;;;;2.19;98.54;98349.25;4997636;28;20218;-69
2022/04/11 04:05:34;;;;;;;6.20;5.60;;;;;;;2.18;98.30;98339.75;4997688;28;20281;-69
2022/04/11 04:08:00;;;;;;;9.30;6.43;;;;;;;2.25;97.69;98351.25;4997192;28;20744;-69
2022/04/11 04:10:26;;;;;;;10.47;7.00;;;;;;;2.23;98.55;98345.34;4997329;28;20204;-69
2022/04/11 04:13:00;;;;;;;8.00;6.30;;;;;;;2.24;98.19;98343.53;4997509;28;20218;-69
2022/04/11 04:15:26;;;;;;;9.93;6.53;;;;;;;2.19;99.07;98332.69;4997264;28;20674;-69
2022/04/11 04:17:53;;;;;;;10.37;6.30;;;;;;;2.21;98.82;98328.94;4997469;28;20227;-69
2022/04/11 04:20:20;;;;;;;9.03;6.83;;;;;;;2.16;99.38;98333.03;4997423;28;20231;-69
2022/04/11 04:22:46;;;;;;;11.57;6.70;;;;;;;2.11;99.57;98330.03;4997242;28;20208;-69
2022/04/11 04:25:13;;;;;;;8.43;6.10;;;;;;;2.18;99.18;98320.56;4996771;28;20218;-69
2022/04/11 04:27:39;;;;;;;9.67;6.80;;;;;;;2.13;99.28;98325.47;4997141;28;20231;-69
2022/04/11 04:30:07;;;;;;;9.60;6.73;;;;;;;2.07;99.29;98323.50;4997845;28;20215;-69
2022/04/11 04:32:33;;;;;;;6.57;5.90;;;;;;;2.03;99.53;98317.72;4997971;28;20251;-69
2022/04/11 04:35:01;;;;;;;7.37;6.50;;;;;;;2.09;99.47;98316.28;4997671;28;20207;-69
2022/04/11 04:37:27;;;;;;;9.53;7.10;;;;;;;2.13;98.50;98312.38;4996653;28;20713;-69
2022/04/11 04:39:54;;;;;;;12.13;7.10;;;;;;;2.12;98.61;98308.09;4996827;28;20307;-69
2022/04/11 04:42:21;;;;;;;11.30;7.33;;;;;;;2.05;99.49;98314.94;4996873;28;20565;-69
2022/04/11 04:44:48;;;;;;;9.57;7.17;;;;;;;2.08;99.83;98314.66;4996778;28;20617;-69
2022/04/11 04:47:16;;;;;;;9.27;6.93;;;;;;;2.07;99.85;98303.31;4996731;28;20227;-69
2022/04/11 04:49:44;;;;;;;9.70;7.37;;;;;;;2.01;99.43;98305.75;4996636;28;20273;-69
2022/04/11 04:52:11;;;;;;;8.90;6.70;;;;;;;1.98;99.88;98308.72;4996344;28;20670;-69
2022/04/11 04:54:37;;;;;;;9.70;6.73;;;;;;;2.01;99.46;98314.47;4996820;28;20570;-70
2022/04/11 04:57:05;;;;;;;10.23;6.67;;;;;;;2.00;98.38;98318.06;4996569;28;20251;-70
2022/04/11 04:59:32;;;;;;;9.63;6.67;;;;;;;1.95;98.72;98328.22;4996574;28;20234;-69
2022/04/11 05:01:58;;;;;;;9.00;6.80;;;;;;;1.99;99.41;98332.13;4996173;28;20223;-69
2022/04/11 05:04:24;;;;;;;12.53;7.30;;;;;;;2.03;99.59;98325.59;4996334;28;20207;-69
2022/04/11 05:06:51;;;;;;;8.47;7.33;;;;;;;2.02;99.46;98320.50;4995945;28;20223;-70
2022/04/11 05:09:18;;;;;;;12.33;7.13;;;;;;;1.96;99.51;98321.16;4996289;28;20207;-70
2022/04/11 05:11:44;;;;;;;9.80;8.35;;;;;;;2.12;99.46;98327.25;4995610;28;20429;-69
2022/04/11 05:14:11;;;;;;;8.80;7.27;;;;;;;2.11;98.57;98323.00;4996805;28;20223;-69
2022/04/11 05:16:37;;;;;;;14.13;7.43;;;;;;;2.06;99.31;98332.31;4996133;28;20203;-69
2022/04/11 05:19:04;;;;;;;11.30;6.70;;;;;;;2.08;98.92;98333.00;4996031;28;20220;-69
2022/04/11 05:21:31;;;;;;;10.80;6.67;;;;;;;2.08;98.65;98335.63;4995805;28;20298;-69
2022/04/11 05:23:58;;;;;;;9.83;6.43;;;;;;;2.04;98.67;98329.06;4995831;28;20203;-69
2022/04/11 05:26:24;;;;;;;11.50;6.73;;;;;;;2.07;98.88;98320.88;4995646;28;20575;-69
2022/04/11 05:28:50;;;;;;;8.70;7.27;;;;;;;2.16;99.05;98322.53;4996075;28;20214;-69
2022/04/11 05:31:18;;;;;;;11.10;6.90;;;;;;;2.17;98.63;98326.81;4995623;28;20298;-69
2022/04/11 05:33:46;;;;;;;9.20;6.60;;;;;;;2.22;98.05;98322.69;4995712;28;20298;-69
2022/04/11 05:36:14;;;;;;;11.30;6.50;;;;;;;2.33;97.80;98318.97;4995494;28;20217;-70
2022/04/11 05:38:40;;;;;;;9.87;6.73;;;;;;;2.45;98.55;98326.38;4995740;28;20231;-70
2022/04/11 05:41:07;;;;;;;9.33;6.60;;;;;;;2.53;98.59;98315.06;4995907;28;20234;-70
2022/04/11 05:43:34;;;;;;;7.63;6.80;;;;;;;2.64;97.28;98322.63;4995712;28;20242;-70
2022/04/11 05:46:01;;;;;;;9.70;7.20;;;;;;;2.79;96.87;98315.72;4995747;28;20203;-70
2022/04/11 05:48:30;;;;;;;9.37;7.43;;;;;;;2.95;97.21;98316.56;4995522;28;20359;-70
2022/04/11 05:50:59;;;;;;;12.77;7.37;;;;;;;3.06;95.85;98321.47;4995377;28;20239;-70
2022/04/11 05:53:26;;;;;;;10.13;7.17;;;;;;;3.16;95.86;98316.84;4995432;28;20617;-70
2022/04/11 05:55:52;;;;;;;9.47;6.80;;;;;;;3.22;95.53;98310.13;4995427;28;20214;-70
2022/04/11 05:58:18;;;;;;;9.53;7.47;;;;;;;3.27;93.64;98320.94;4995626;28;20227;-70
2022/04/11 06:00:45;;;;;;;8.97;7.03;;;;;;;3.40;93.23;98318.63;4995145;28;20246;-70
2022/04/11 06:03:11;;;;;;;9.17;7.13;;;;;;;3.38;92.88;98315.34;4995029;28;20207;-69
2022/04/11 06:05:38;;;;;;;10.33;6.83;;;;;;;3.49;92.17;98322.88;4995301;28;20207;-69
2022/04/11 06:08:04;;;;;;;9.83;6.57;;;;;;;3.51;91.46;98323.53;4994768;28;20242;-70
2022/04/11 06:10:31;;;;;;;12.23;7.17;;;;;;;3.60;91.24;98322.50;4994705;28;20203;-70
2022/04/11 06:12:57;;;;;;;9.40;7.03;;;;;;;3.64;90.21;98318.56;4994710;28;20203;-70
2022/04/11 06:15:24;;;;;;;7.47;6.67;;;;;;;3.73;90.15;98320.19;4994217;28;20218;-70
2022/04/11 06:17:50;;;;;;;7.40;6.37;;;;;;;3.82;89.80;98319.16;4995067;28;20227;-69
2022/04/11 06:20:17;;;;;;;7.60;6.50;;;;;;;3.83;89.50;98313.75;4994589;28;20234;-70
2022/04/11 06:22:45;;;;;;;7.57;6.63;;;;;;;3.88;89.06;98321.94;4995109;28;20211;-69
2022/04/11 06:25:11;;;;;;;9.47;7.00;;;;;;;3.94;89.57;98320.44;4994953;28;20211;-70
2022/04/11 06:27:38;;;;;;;8.20;6.53;;;;;;;4.07;87.78;98321.50;4994652;28;20235;-70
2022/04/11 06:30:06;;;;;;;10.07;6.07;;;;;;;4.20;87.73;98320.97;4994123;28;20209;-70
2022/04/11 06:32:33;;;;;;;8.00;5.70;;;;;;;4.39;86.07;98316.06;4994517;28;20234;-67
2022/04/11 06:35:07;;;;;;;7.07;6.17;;;;;;;4.65;84.18;98313.94;4994710;28;20299;-71
2022/04/11 06:37:33;;;;;;;8.47;5.83;;;;;;;4.60;85.04;98318.06;4994287;28;20277;-71
2022/04/11 06:40:01;;;;;;;9.53;5.43;;;;;;;4.73;83.63;98318.31;4994724;28;20227;-71
2022/04/11 06:42:54;;;;;;;10.17;6.40;;;;;;;4.59;82.18;98321.72;4994403;28;20570;-71
2022/04/11 06:45:20;;;;;;;6.60;5.90;;;;;;;4.60;81.93;98318.91;4994673;28;20197;-71
2022/04/11 06:47:48;;;;;;;12.43;6.17;;;;;;;4.70;82.54;98322.13;4993043;28;20314;-70
2022/04/11 06:50:36;;;;;;;12.50;6.50;;;;;;;4.82;82.62;98322.53;4994714;28;20209;-70
2022/04/11 06:53:48;;;;;;;9.80;6.17;;;;;;;5.07;81.57;98313.44;4994049;28;20278;-71
2022/04/11 06:56:18;;;;;;;9.53;6.53;;;;;;;5.14;79.82;98311.72;4994473;28;20283;-70
2022/04/11 06:58:49;;;;;;;9.63;6.50;;;;;;;5.10;79.86;98306.00;4994103;28;20203;-71
2022/04/11 07:01:31;;;;;;;12.80;6.93;;;;;;;5.36;79.50;98302.94;4994063;28;20226;-70
2022/04/11 07:03:58;;;;;;;7.57;6.47;;;;;;;5.46;77.81;98316.69;4993948;28;20207;-70
2022/04/11 07:06:24;;;;;;;12.57;6.97;;;;;;;5.62;79.41;98319.16;4993874;28;20214;-71
2022/04/11 07:08:50;;;;;;;10.87;6.77;;;;;;;5.66;76.61;98318.59;4994208;28;20219;-71
2022/04/11 07:11:17;;;;;;;12.03;7.17;;;;;;;5.63;77.15;98312.88;4993697;28;20215;-70
2022/04/11 07:13:46;;;;;;;11.90;6.90;;;;;;;5.87;75.21;98315.25;4993596;28;20237;-70
2022/04/11 07:16:12;;;;;;;10.80;7.07;;;;;;;6.04;73.38;98322.00;4994230;28;20298;-70
2022/04/11 07:18:44;;;;;;;9.77;6.53;;;;;;;6.16;73.23;98329.25;4993393;28;20230;-71
2022/04/11 07:21:10;;;;;;;8.17;6.57;;;;;;;6.16;71.67;98316.06;4993477;28;20759;-70
2022/04/11 07:23:37;;;;;;;11.77;7.20;;;;;;;6.33;71.82;98319.31;4993554;28;20203;-70
2022/04/11 07:26:07;;;;;;;7.67;6.63;;;;;;;6.47;70.58;98313.97;4992844;28;20203;-70
2022/04/11 07:28:34;;;;;;;9.93;6.90;;;;;;;6.52;69.74;98306.31;4993504;28;20219;-68
2022/04/11 07:31:00;;;;;;;8.43;5.70;;;;;;;6.85;70.18;98309.28;4993630;28;20207;-65
2022/04/11 07:33:50;;;;;;;;;;;;;;;;;;;;;
2022/04/11 07:36:17;;;;;;;6.67;6.07;;;;;;;6.59;67.52;98309.84;4992719;28;20215;-69
2022/04/11 07:38:44;;;;;;;8.03;5.63;;;;;;;6.84;67.69;98305.00;4993755;28;20218;-68
2022/04/11 07:41:10;;;;;;;6.47;5.87;;;;;;;6.93;66.83;98309.97;4993902;28;20219;-68
2022/04/11 07:43:37;;;;;;;6.23;5.10;;;;;;;7.21;65.53;98307.38;4993943;28;20213;-68
2022/04/11 07:48:43;;;;;;;6.40;5.40;;;;;;;7.09;66.42;98303.59;4989732;28;20221;-69
2022/04/11 07:51:16;;;;;;;6.27;5.37;;;;;;;7.15;66.82;98314.22;4993428;28;20215;-68
2022/04/11 07:54:02;;;;;;;9.13;5.17;;;;;;;7.20;66.37;98318.97;4993490;28;20207;-68
2022/04/11 07:59:48;;;;;;;7.57;4.87;;;;;;;7.48;65.18;98317.97;4977137;28;20210;-66
2022/04/11 08:02:24;;;;;;;5.73;4.77;;;;;;;7.69;64.63;98309.94;4992897;28;20233;-66
2022/04/11 08:07:49;;;;;;;6.17;4.60;;;;;;;7.85;62.16;98311.47;4991703;28;20298;-66
2022/04/11 08:10:21;;;;;;;4.63;4.23;;;;;;;8.12;60.24;98306.13;4994073;28;20317;-66
2022/04/11 08:13:01;;;;;;;5.60;4.10;;;;;;;8.34;59.95;98304.19;4992782;28;20211;-66
2022/04/11 08:15:35;;;;;;;6.20;4.37;;;;;;;8.32;60.76;98300.94;4993240;28;20209;-66
2022/04/11 08:18:01;;;;;;;4.43;3.93;;;;;;;8.51;60.85;98314.22;4993279;28;20227;-67
2022/04/11 08:20:28;;;;;;;4.97;3.60;;;;;;;8.50;58.99;98301.16;4992933;28;20235;-67
2022/04/11 08:22:55;;;;;;;4.03;3.47;;;;;;;8.51;57.02;98311.56;4993318;28;20211;-66
2022/04/11 08:25:24;;;;;;;4.20;3.43;;;;;;;8.82;58.13;98297.78;4993240;28;20207;-67
2022/04/11 08:28:00;;;;;;;4.17;3.33;;;;;;;9.07;56.88;98304.13;4993139;28;20257;-66
2022/04/11 08:30:46;;;;;;;;;;;;;;;;;;;;;
2022/04/11 08:33:13;;;;;;;4.60;3.40;;;;;;;9.04;55.58;98301.88;4992660;28;20215;-67
2022/04/11 08:35:40;;;;;;;5.23;3.20;;;;;;;9.09;55.39;98294.16;4993449;28;20262;-66
2022/04/11 08:38:12;;;;;;;4.43;3.23;;;;;;;9.40;57.60;98305.75;4995412;28;20317;-66
2022/04/11 08:40:39;;;;;;;4.97;3.50;;;;;;;9.29;55.99;98300.25;4996994;28;20233;-67
2022/04/11 08:43:11;;;;;;;5.03;3.20;;;;;;;9.26;54.48;98292.69;4996895;28;20210;-67
2022/04/11 08:45:51;;;;;;;2.90;2.67;;;;;;;9.51;53.38;98302.47;4996681;28;20195;-66
2022/04/11 08:48:25;;;;;;;3.93;2.77;;;;;;;9.56;53.81;98293.91;4996558;28;20286;-67
2022/04/11 08:50:51;;;;;;;7.30;2.97;;;;;;;9.56;53.60;98304.53;4996970;28;20195;-67
2022/04/11 08:53:24;;;;;;;5.10;2.43;;;;;;;9.56;52.77;98293.91;4996929;28;20218;-67
2022/04/11 08:55:54;;;;;;;6.90;2.57;;;;;;;9.80;52.62;98288.75;4996522;28;20199;-68
2022/04/11 08:58:27;;;;;;;3.80;2.90;;;;;;;9.80;53.63;98286.09;4996320;28;20394;-67
2022/04/11 09:01:00;;;;;;;3.53;2.50;;;;;;;9.81;51.57;98286.91;4996415;28;20299;-67
2022/04/11 09:03:27;;;;;;;5.20;2.90;;;;;;;10.09;51.86;98290.13;4996576;28;20625;-67
2022/04/11 09:06:10;;;;;;;3.07;2.77;;;;;;;9.89;49.86;98278.72;4996510;28;20294;-67
2022/04/11 09:09:11;;;;;;;3.70;2.37;;;;;;;10.03;51.33;98288.25;4996170;28;20239;-67
2022/04/11 09:11:46;;;;;;;2.80;2.50;;;;;;;10.47;49.39;98275.03;4996187;28;20337;-68
2022/04/11 09:17:46;;;;;;;4.37;2.73;;;;;;;10.20;48.24;98270.88;4988320;28;20258;-68
2022/04/11 09:20:51;;;;;;;3.87;2.77;;;;;;;10.47;48.44;98267.88;4996384;28;20196;-67
2022/04/11 09:23:28;;;;;;;2.77;2.57;;;;;;;10.57;48.23;98265.56;4996214;28;20209;-68
2022/04/11 09:26:24;;;;;;;6.17;2.60;;;;;;;10.95;50.06;98262.88;4996490;28;20520;-67
2022/04/11 09:29:04;;;;;;;2.83;2.10;;;;;;;11.28;45.80;98269.53;4996199;28;20195;-67
2022/04/11 09:31:38;;;;;;;2.30;2.10;;;;;;;11.08;46.27;98271.56;4996008;28;20188;-68
2022/04/11 09:34:15;;;;;;;2.83;2.33;;;;;;;11.25;45.85;98266.50;4995699;28;20556;-67
2022/04/11 09:36:49;;;;;;;6.60;2.10;;;;;;;11.43;45.34;98263.88;4996056;28;20241;-67
2022/04/11 09:39:16;;;;;;;3.53;1.93;;;;;;;11.50;45.46;98267.31;4995639;28;20278;-67
2022/04/11 09:41:57;;;;;;;2.20;2.00;;;;;;;11.57;45.82;98259.25;4995349;28;20231;-68
2022/04/11 09:44:24;;;;;;;4.57;2.17;;;;;;;11.89;44.86;98248.25;4995394;28;20642;-67
2022/04/11 09:47:00;;;;;;;3.00;1.77;;;;;;;11.75;43.82;98254.78;4995717;28;20285;-68
2022/04/11 09:49:29;;;;;;;2.20;1.60;;;;;;;11.88;41.72;98256.47;4994505;28;20728;-67
2022/04/11 09:52:14;;;;;;;3.37;1.80;;;;;;;12.09;41.34;98246.19;4995736;28;20208;-67
2022/04/11 09:54:46;;;;;;;2.73;1.73;;;;;;;12.01;42.13;98251.81;4995431;28;20662;-68
2022/04/11 09:57:18;;;;;;;5.30;1.80;;;;;;;11.94;40.89;98240.41;4995280;28;20662;-67
2022/04/11 09:59:49;;;;;;;2.30;1.80;;;;;;;12.22;42.30;98224.72;4995589;28;20205;-68
2022/04/11 10:02:17;;;;;;;3.43;1.40;;;;;;;12.25;39.82;98226.91;4995519;28;20306;-67
2022/04/11 10:04:50;;;;;;;2.23;1.80;;;;;;;12.44;40.82;98227.69;4995442;28;20207;-67
2022/04/11 10:07:28;;;;;;;2.27;1.70;;;;;;;12.25;39.52;98226.13;4994969;28;20714;-67
2022/04/11 10:10:14;;;;;;;;;;;;;;;;;;;;;
2022/04/11 10:12:58;;;;;;;3.53;2.10;;;;;;;12.26;40.78;98220.53;4995115;28;20213;-67
2022/04/11 10:15:34;;;;;;;2.90;1.90;;;;;;;12.45;41.34;98218.66;4994872;28;20296;-67
2022/04/11 10:18:05;;;;;;;3.57;1.87;;;;;;;12.32;39.85;98211.66;4994219;28;20236;-66
2022/04/11 10:20:43;;;;;;;3.37;1.80;;;;;;;12.67;39.99;98209.09;4995606;28;20194;-66
2022/04/11 10:23:37;;;;;;;2.17;1.90;;;;;;;12.89;40.66;98204.84;4994964;28;20192;-67
2022/04/11 10:26:22;;;;;;;2.33;1.70;;;;;;;12.82;40.17;98206.81;4995010;28;20202;-66
2022/04/11 10:29:16;;;;;;;3.67;1.93;;;;;;;12.99;41.68;98197.13;4993884;28;20252;-66
2022/04/11 10:31:43;;;;;;;4.00;1.70;;;;;;;13.07;39.13;98199.47;4987089;28;20209;-66
2022/04/11 10:34:10;;;;;;;2.73;1.50;;;;;;;12.74;39.28;98197.28;4994566;28;20549;-67
2022/04/11 10:36:56;;;;;;;2.40;1.80;;;;;;;13.01;38.86;98211.84;4994788;28;20205;-68
2022/04/11 10:39:29;;;;;;;2.27;1.93;;;;;;;12.83;39.28;98195.91;4994537;28;20194;-69
2022/04/11 10:41:55;;;;;;;2.43;1.87;;;;;;;12.88;39.21;98196.03;4994557;28;20564;-69
2022/04/11 10:44:48;;;;;;;2.67;1.70;;;;;;;13.14;38.46;98197.47;4994146;28;20305;-68
2022/04/11 10:47:18;;;;;;;3.30;1.87;;;;;;;12.99;38.55;98199.78;4994527;28;20282;-68
2022/04/11 10:49:50;;;;;;;2.63;1.53;;;;;;;13.17;37.12;98189.00;4994676;28;20225;-69
2022/04/11 10:52:54;;;;;;;2.17;1.33;;;;;;;13.16;37.80;98190.84;4994427;28;20203;-69
2022/04/11 10:55:28;;;;;;;4.20;1.90;;;;;;;13.31;39.32;98179.72;4994310;28;20195;-69
2022/04/11 10:58:00;;;;;;;1.73;1.63;;;;;;;13.36;38.77;98177.16;4994097;28;20721;-69
2022/04/11 11:00:36;;;;;;;1.93;1.73;;;;;;;13.19;38.60;98174.38;4994206;28;20199;-68
2022/04/11 11:03:28;;;;;;;2.57;1.90;;;;;;;13.43;41.19;98165.31;4993891;28;20637;-69
2022/04/11 11:06:35;;;;;;;2.57;1.70;;;;;;;13.31;37.05;98166.38;4989990;28;20215;-68
2022/04/11 11:27:55;;;;;;;2.30;1.43;;;;;;;13.52;40.06;98126.50;4995194;23;20251;-69
2022/04/11 11:31:12;;;;;;;1.57;1.47;;;;;;;13.37;37.46;98133.38;5031115;28;20208;-69
2022/04/11 11:34:18;;;;;;;4.00;1.70;;;;;;;13.47;38.03;98122.94;5032279;28;20533;-70
2022/04/11 11:51:16;;;;;;;2.13;1.80;;;;;;;13.65;36.24;98101.41;5010461;28;20264;-69
2022/04/11 11:53:51;;;;;;;3.70;1.73;;;;;;;13.63;37.14;98104.31;5013168;28;20626;-69
2022/04/11 11:56:17;;;;;;;2.33;1.73;;;;;;;13.69;35.88;98102.53;5013300;28;20202;-70
2022/04/11 11:58:45;;;;;;;1.67;1.57;;;;;;;13.62;36.48;98096.53;5013193;28;20293;-69
2022/04/11 12:01:13;;;;;;;2.20;2.00;;;;;;;13.51;38.31;98100.03;5013093;28;20570;-69
2022/04/11 12:06:29;;;;;;;2.37;1.70;;;;;;;13.80;37.09;98089.13;5012945;28;20173;-69
2022/04/11 12:09:00;;;;;;;2.60;1.70;;;;;;;13.64;36.88;98084.56;5013064;28;20207;-69
2022/04/11 12:11:29;;;;;;;3.40;1.80;;;;;;;14.07;35.21;98079.47;5013251;28;20187;-69
2022/04/11 12:14:04;;;;;;;2.43;1.80;;;;;;;14.06;34.55;98069.84;5016276;28;20206;-69
2022/04/11 12:16:32;;;;;;;4.27;1.47;;;;;;;14.07;35.70;98076.03;5016928;28;20190;-69
2022/04/11 12:19:01;;;;;;;2.53;1.70;;;;;;;14.20;35.80;98078.41;5016922;28;20203;-70
2022/04/11 12:21:35;;;;;;;2.37;1.90;;;;;;;14.34;35.16;98075.19;5016937;28;20226;-69
2022/04/11 12:24:10;;;;;;;3.37;2.13;;;;;;;14.15;34.20;98067.63;5016342;28;20213;-70
2022/04/11 12:26:38;;;;;;;2.67;2.13;;;;;;;14.35;33.11;98063.47;5016619;28;20233;-69
2022/04/11 12:29:17;;;;;;;2.37;1.70;;;;;;;14.21;36.13;98064.00;5016515;28;20205;-69
2022/04/11 12:31:58;;;;;;;1.70;1.50;;;;;;;13.93;35.46;98058.66;5017504;28;20194;-68
2022/04/11 12:34:38;;;;;;;2.90;1.90;;;;;;;14.15;33.36;98059.59;5016647;28;20214;-71
2022/04/11 12:37:07;;;;;;;2.70;2.50;;;;;;;14.29;34.07;98058.25;5016443;28;20320;-70
2022/04/11 12:39:52;;;;;;;4.53;2.93;;;;;;;14.37;34.46;98055.97;5015583;28;20214;-71
2022/04/11 12:42:21;;;;;;;2.83;1.70;;;;;;;14.33;33.55;98057.53;5016075;28;20218;-69
2022/04/11 12:44:47;;;;;;;6.83;2.00;;;;;;;14.23;34.35;98060.03;5016003;28;20218;-70
2022/04/11 12:47:14;;;;;;;2.13;1.77;;;;;;;14.30;33.71;98047.28;5016195;28;20223;-70